RA73750 FSIA-HTZA
Flight info
| Callsign | RA73750 |
|---|---|
| Flight time | 2h 17m |
| Altitude | 40000 |
| Route | PAOLO DCT KATEB UL434 IMKAK UL437 AVEKI |
| Aircraft | C750/L-SABDGRWY/H |
Departure
| Time | 2026-04-25 14:19 |
|---|---|
| Airport | Seychelles International Airport (FSIA) |
Arrival
| Time | 2026-04-25 16:37 |
|---|---|
| Airport | Abeid Amani Karume International Airport (HTZA) |
| Time | Latitude | Longitude | Altitude | Speed | Heading |
|---|---|---|---|---|---|
| 2026-04-25 14:06 | -4.66998 | 55.51091 | 17 ft | 0 kts | 213° |
| 2026-04-25 14:10 | -4.66989 | 55.51097 | 20 ft | 3 kts | 213° |
| 2026-04-25 14:10 | -4.66973 | 55.51107 | 20 ft | 3 kts | 213° |
| 2026-04-25 14:10 | -4.66958 | 55.51117 | 17 ft | 3 kts | 213° |
| 2026-04-25 14:11 | -4.66941 | 55.51123 | 17 ft | 3 kts | 172° |
| 2026-04-25 14:11 | -4.66938 | 55.51123 | 17 ft | 0 kts | 164° |
| 2026-04-25 14:12 | -4.66941 | 55.51124 | 17 ft | 3 kts | 161° |
| 2026-04-25 14:12 | -4.66965 | 55.51161 | 17 ft | 9 kts | 115° |
| 2026-04-25 14:13 | -4.66993 | 55.51213 | 17 ft | 8 kts | 127° |
| 2026-04-25 14:13 | -4.67014 | 55.51245 | 18 ft | 8 kts | 112° |
| 2026-04-25 14:13 | -4.66981 | 55.51308 | 17 ft | 8 kts | 38° |
| 2026-04-25 14:13 | -4.66952 | 55.51331 | 17 ft | 8 kts | 38° |
| 2026-04-25 14:14 | -4.66906 | 55.51377 | 18 ft | 6 kts | 74° |
| 2026-04-25 14:14 | -4.66915 | 55.51419 | 18 ft | 13 kts | 120° |
| 2026-04-25 14:14 | -4.66978 | 55.51518 | 18 ft | 18 kts | 123° |
| 2026-04-25 14:14 | -4.67046 | 55.51620 | 18 ft | 18 kts | 127° |
| 2026-04-25 14:15 | -4.67134 | 55.51742 | 18 ft | 22 kts | 124° |
| 2026-04-25 14:15 | -4.67189 | 55.51821 | 20 ft | 20 kts | 125° |
| 2026-04-25 14:15 | -4.67293 | 55.51971 | 19 ft | 23 kts | 124° |
| 2026-04-25 14:15 | -4.67399 | 55.52120 | 20 ft | 29 kts | 126° |
| 2026-04-25 14:16 | -4.67515 | 55.52286 | 18 ft | 28 kts | 124° |
| 2026-04-25 14:16 | -4.67621 | 55.52442 | 18 ft | 26 kts | 124° |
| 2026-04-25 14:16 | -4.67718 | 55.52588 | 16 ft | 25 kts | 123° |
| 2026-04-25 14:16 | -4.67811 | 55.52724 | 17 ft | 23 kts | 124° |
| 2026-04-25 14:17 | -4.67901 | 55.52857 | 17 ft | 23 kts | 124° |
| 2026-04-25 14:17 | -4.67995 | 55.52994 | 18 ft | 25 kts | 124° |
| 2026-04-25 14:17 | -4.68091 | 55.53129 | 19 ft | 23 kts | 135° |
| 2026-04-25 14:17 | -4.68236 | 55.53173 | 19 ft | 19 kts | 165° |
| 2026-04-25 14:18 | -4.68232 | 55.53255 | 18 ft | 12 kts | 34° |
| 2026-04-25 14:18 | -4.68180 | 55.53256 | 19 ft | 8 kts | 316° |
| 2026-04-25 14:18 | -4.68157 | 55.53228 | 18 ft | 0 kts | 304° |
| 2026-04-25 14:19 | -4.68130 | 55.53187 | 19 ft | 18 kts | 304° |
| 2026-04-25 14:19 | -4.67999 | 55.52993 | 21 ft | 74 kts | 304° |
| 2026-04-25 14:19 | -4.67509 | 55.52289 | 104 ft | 149 kts | 305° |
| 2026-04-25 14:19 | -4.66895 | 55.51411 | 692 ft | 159 kts | 304° |
| 2026-04-25 14:20 | -4.66244 | 55.50465 | 1192 ft | 176 kts | 303° |
| 2026-04-25 14:20 | -4.65765 | 55.49772 | 1541 ft | 174 kts | 303° |
| 2026-04-25 14:20 | -4.64807 | 55.48397 | 2195 ft | 188 kts | 304° |
| 2026-04-25 14:20 | -4.64067 | 55.47327 | 3162 ft | 185 kts | 303° |
| 2026-04-25 14:21 | -4.63288 | 55.46281 | 3820 ft | 199 kts | 314° |
| 2026-04-25 14:21 | -4.61921 | 55.45697 | 4100 ft | 234 kts | 352° |
| 2026-04-25 14:21 | -4.60193 | 55.45701 | 4546 ft | 260 kts | 2° |
| 2026-04-25 14:21 | -4.58316 | 55.45789 | 5137 ft | 276 kts | 1° |
| 2026-04-25 14:22 | -4.56396 | 55.45818 | 6093 ft | 276 kts | 359° |
| 2026-04-25 14:22 | -4.54477 | 55.45826 | 6888 ft | 282 kts | 360° |
| 2026-04-25 14:22 | -4.52509 | 55.45852 | 7805 ft | 285 kts | 0° |
| 2026-04-25 14:22 | -4.50513 | 55.45886 | 8788 ft | 288 kts | 1° |
| 2026-04-25 14:23 | -4.48490 | 55.45914 | 9710 ft | 292 kts | 1° |
| 2026-04-25 14:23 | -4.46421 | 55.45941 | 10290 ft | 306 kts | 1° |
| 2026-04-25 14:23 | -4.44200 | 55.45972 | 10435 ft | 334 kts | 1° |
| 2026-04-25 14:23 | -4.41805 | 55.46006 | 10543 ft | 358 kts | 1° |
| 2026-04-25 14:24 | -4.39297 | 55.46040 | 11318 ft | 358 kts | 1° |
| 2026-04-25 14:24 | -4.36787 | 55.46074 | 12032 ft | 362 kts | 1° |
| 2026-04-25 14:24 | -4.34304 | 55.46109 | 12694 ft | 366 kts | 1° |
| 2026-04-25 14:24 | -4.31738 | 55.46145 | 13387 ft | 370 kts | 1° |
| 2026-04-25 14:25 | -4.30023 | 55.46169 | 13811 ft | 373 kts | 1° |
| 2026-04-25 14:25 | -4.26558 | 55.46216 | 14603 ft | 377 kts | 1° |
| 2026-04-25 14:25 | -4.23920 | 55.46077 | 15072 ft | 385 kts | 350° |
| 2026-04-25 14:25 | -4.22239 | 55.45484 | 15420 ft | 388 kts | 335° |
| 2026-04-25 14:26 | -4.19429 | 55.43215 | 16267 ft | 394 kts | 309° |
| 2026-04-25 14:26 | -4.18158 | 55.40769 | 16869 ft | 400 kts | 288° |
| 2026-04-25 14:26 | -4.17797 | 55.38023 | 17500 ft | 403 kts | 271° |
| 2026-04-25 14:26 | -4.17871 | 55.35194 | 18168 ft | 407 kts | 268° |
| 2026-04-25 14:27 | -4.18023 | 55.32349 | 18729 ft | 411 kts | 267° |
| 2026-04-25 14:27 | -4.18142 | 55.29471 | 19344 ft | 415 kts | 268° |
| 2026-04-25 14:27 | -4.18214 | 55.26568 | 19955 ft | 418 kts | 269° |
| 2026-04-25 14:27 | -4.18301 | 55.23645 | 20579 ft | 422 kts | 268° |
| 2026-04-25 14:28 | -4.18416 | 55.20730 | 21194 ft | 426 kts | 268° |
| 2026-04-25 14:28 | -4.18530 | 55.17746 | 21823 ft | 429 kts | 268° |
| 2026-04-25 14:28 | -4.18626 | 55.14743 | 22457 ft | 433 kts | 268° |
| 2026-04-25 14:28 | -4.18723 | 55.11715 | 23109 ft | 436 kts | 268° |
| 2026-04-25 14:29 | -4.18830 | 55.08663 | 23706 ft | 439 kts | 268° |
| 2026-04-25 14:29 | -4.18940 | 55.05592 | 24254 ft | 441 kts | 268° |
| 2026-04-25 14:29 | -4.19043 | 55.02555 | 24817 ft | 443 kts | 268° |
| 2026-04-25 14:29 | -4.19147 | 54.99453 | 25362 ft | 446 kts | 268° |
| 2026-04-25 14:30 | -4.19254 | 54.96325 | 25936 ft | 448 kts | 268° |
| 2026-04-25 14:30 | -4.19469 | 54.90064 | 27036 ft | 454 kts | 268° |
| 2026-04-25 14:30 | -4.19577 | 54.86875 | 27566 ft | 457 kts | 268° |
| 2026-04-25 14:31 | -4.19686 | 54.83667 | 28098 ft | 461 kts | 268° |
| 2026-04-25 14:31 | -4.19794 | 54.80481 | 28615 ft | 464 kts | 268° |
| 2026-04-25 14:31 | -4.19905 | 54.77234 | 29113 ft | 467 kts | 268° |
| 2026-04-25 14:31 | -4.20015 | 54.73966 | 29622 ft | 470 kts | 268° |
| 2026-04-25 14:32 | -4.20126 | 54.70676 | 30085 ft | 474 kts | 268° |
| 2026-04-25 14:32 | -4.20239 | 54.67355 | 30480 ft | 477 kts | 268° |
| 2026-04-25 14:32 | -4.20351 | 54.64023 | 30880 ft | 480 kts | 268° |
| 2026-04-25 14:32 | -4.20462 | 54.60729 | 31470 ft | 477 kts | 268° |
| 2026-04-25 14:33 | -4.20575 | 54.57366 | 32068 ft | 475 kts | 268° |
| 2026-04-25 14:33 | -4.20685 | 54.54111 | 32598 ft | 475 kts | 268° |
| 2026-04-25 14:33 | -4.20796 | 54.50799 | 33122 ft | 474 kts | 268° |
| 2026-04-25 14:33 | -4.20907 | 54.47497 | 33658 ft | 474 kts | 268° |
| 2026-04-25 14:34 | -4.21017 | 54.44191 | 34152 ft | 473 kts | 269° |
| 2026-04-25 14:34 | -4.21128 | 54.40894 | 34618 ft | 473 kts | 269° |
| 2026-04-25 14:34 | -4.21237 | 54.37611 | 35086 ft | 472 kts | 269° |
| 2026-04-25 14:34 | -4.21347 | 54.34319 | 35565 ft | 471 kts | 269° |
| 2026-04-25 14:35 | -4.21457 | 54.31037 | 36061 ft | 471 kts | 269° |
| 2026-04-25 14:35 | -4.21566 | 54.27761 | 36574 ft | 469 kts | 269° |
| 2026-04-25 14:35 | -4.21673 | 54.24539 | 37082 ft | 468 kts | 269° |
| 2026-04-25 14:35 | -4.21781 | 54.21271 | 37608 ft | 467 kts | 269° |
| 2026-04-25 14:36 | -4.21889 | 54.18013 | 38153 ft | 466 kts | 269° |
| 2026-04-25 14:36 | -4.21997 | 54.14765 | 38670 ft | 465 kts | 270° |
| 2026-04-25 14:36 | -4.22104 | 54.11532 | 39125 ft | 464 kts | 270° |
| 2026-04-25 14:36 | -4.22210 | 54.08301 | 39594 ft | 462 kts | 270° |
| 2026-04-25 14:37 | -4.22317 | 54.05076 | 39906 ft | 466 kts | 270° |
| 2026-04-25 14:37 | -4.22422 | 54.01829 | 39880 ft | 477 kts | 270° |
| 2026-04-25 14:37 | -4.22646 | 53.95049 | 39902 ft | 496 kts | 270° |
| 2026-04-25 14:38 | -4.22876 | 53.88017 | 39901 ft | 511 kts | 269° |
| 2026-04-25 14:38 | -4.23112 | 53.80846 | 39893 ft | 515 kts | 269° |
| 2026-04-25 14:39 | -4.23346 | 53.73658 | 39897 ft | 515 kts | 269° |
| 2026-04-25 14:39 | -4.23579 | 53.66516 | 39895 ft | 516 kts | 269° |
| 2026-04-25 14:40 | -4.23812 | 53.59310 | 39895 ft | 515 kts | 269° |
| 2026-04-25 14:40 | -4.24043 | 53.52169 | 39895 ft | 515 kts | 269° |
| 2026-04-25 14:41 | -4.24275 | 53.44985 | 39896 ft | 515 kts | 269° |
| 2026-04-25 14:41 | -4.24506 | 53.37803 | 39896 ft | 515 kts | 269° |
| 2026-04-25 14:42 | -4.24658 | 53.33049 | 39899 ft | 515 kts | 269° |
| 2026-04-25 14:42 | -4.24963 | 53.23496 | 39900 ft | 515 kts | 269° |
| 2026-04-25 14:43 | -4.25193 | 53.16306 | 39890 ft | 518 kts | 269° |
| 2026-04-25 14:43 | -4.25424 | 53.09023 | 39894 ft | 525 kts | 269° |
| 2026-04-25 14:44 | -4.25656 | 53.01724 | 39898 ft | 527 kts | 269° |
| 2026-04-25 14:44 | -4.25887 | 52.94381 | 39893 ft | 526 kts | 269° |
| 2026-04-25 14:45 | -4.26120 | 52.87010 | 39890 ft | 527 kts | 269° |
| 2026-04-25 14:45 | -4.26348 | 52.79727 | 39890 ft | 528 kts | 270° |
| 2026-04-25 14:46 | -4.26579 | 52.72356 | 39887 ft | 528 kts | 270° |
| 2026-04-25 14:46 | -4.26809 | 52.64986 | 39895 ft | 529 kts | 270° |
| 2026-04-25 14:47 | -4.26961 | 52.60102 | 39898 ft | 529 kts | 270° |
| 2026-04-25 14:47 | -4.27266 | 52.50281 | 39895 ft | 530 kts | 270° |
| 2026-04-25 14:48 | -4.27494 | 52.42895 | 39897 ft | 530 kts | 270° |
| 2026-04-25 14:48 | -4.27665 | 52.35477 | 39894 ft | 531 kts | 272° |
| 2026-04-25 14:49 | -4.27566 | 52.28070 | 39893 ft | 530 kts | 272° |
| 2026-04-25 14:49 | -4.27499 | 52.20715 | 39900 ft | 531 kts | 272° |
| 2026-04-25 14:50 | -4.27409 | 52.13306 | 39900 ft | 531 kts | 273° |
| 2026-04-25 14:50 | -4.27332 | 52.05959 | 39900 ft | 531 kts | 272° |
| 2026-04-25 14:51 | -4.27246 | 51.98511 | 39903 ft | 531 kts | 273° |
| 2026-04-25 14:51 | -4.27165 | 51.91163 | 39899 ft | 530 kts | 273° |
| 2026-04-25 14:52 | -4.27080 | 51.83759 | 39896 ft | 531 kts | 273° |
| 2026-04-25 14:52 | -4.27024 | 51.78851 | 39900 ft | 530 kts | 273° |
| 2026-04-25 14:53 | -4.26909 | 51.68977 | 39896 ft | 530 kts | 273° |
| 2026-04-25 14:53 | -4.26823 | 51.61615 | 39906 ft | 530 kts | 273° |
| 2026-04-25 14:54 | -4.26736 | 51.54230 | 39905 ft | 530 kts | 273° |
| 2026-04-25 14:54 | -4.26649 | 51.46838 | 39898 ft | 530 kts | 273° |
| 2026-04-25 14:55 | -4.26560 | 51.39461 | 39902 ft | 529 kts | 273° |
| 2026-04-25 14:55 | -4.26472 | 51.32135 | 39904 ft | 529 kts | 273° |
| 2026-04-25 14:56 | -4.26382 | 51.24732 | 39903 ft | 529 kts | 273° |
| 2026-04-25 14:56 | -4.26292 | 51.17360 | 39899 ft | 529 kts | 273° |
| 2026-04-25 14:57 | -4.26201 | 51.10029 | 39901 ft | 528 kts | 273° |
| 2026-04-25 14:57 | -4.26110 | 51.02665 | 39908 ft | 528 kts | 273° |
| 2026-04-25 14:58 | -4.26017 | 50.95284 | 39909 ft | 529 kts | 273° |
| 2026-04-25 14:58 | -4.25924 | 50.87910 | 39902 ft | 529 kts | 273° |
| 2026-04-25 14:59 | -4.25830 | 50.80575 | 39904 ft | 529 kts | 273° |
| 2026-04-25 14:59 | -4.25752 | 50.74442 | 39899 ft | 529 kts | 273° |
| 2026-04-25 15:00 | -4.25656 | 50.67053 | 39902 ft | 529 kts | 273° |
| 2026-04-25 15:00 | -4.25560 | 50.59668 | 39901 ft | 529 kts | 273° |
| 2026-04-25 15:01 | -4.25464 | 50.52326 | 39901 ft | 529 kts | 273° |
| 2026-04-25 15:01 | -4.25367 | 50.44950 | 39901 ft | 529 kts | 273° |
| 2026-04-25 15:02 | -4.25269 | 50.37596 | 39902 ft | 529 kts | 273° |
| 2026-04-25 15:02 | -4.25170 | 50.30200 | 39904 ft | 529 kts | 273° |
| 2026-04-25 15:03 | -4.25071 | 50.22852 | 39904 ft | 529 kts | 273° |
| 2026-04-25 15:03 | -4.24971 | 50.15476 | 39907 ft | 529 kts | 273° |
| 2026-04-25 15:04 | -4.24871 | 50.08106 | 39906 ft | 529 kts | 273° |
| 2026-04-25 15:04 | -4.24769 | 50.00762 | 39899 ft | 528 kts | 273° |
| 2026-04-25 15:05 | -4.24667 | 49.93368 | 39907 ft | 528 kts | 273° |
| 2026-04-25 15:06 | -4.24513 | 49.82368 | 39907 ft | 527 kts | 273° |
| 2026-04-25 15:06 | -4.24410 | 49.75058 | 39910 ft | 527 kts | 273° |
| 2026-04-25 15:07 | -4.24306 | 49.67686 | 39908 ft | 527 kts | 273° |
| 2026-04-25 15:07 | -4.24201 | 49.60344 | 39912 ft | 527 kts | 273° |
| 2026-04-25 15:08 | -4.24096 | 49.53043 | 39914 ft | 526 kts | 273° |
| 2026-04-25 15:08 | -4.23989 | 49.45677 | 39913 ft | 526 kts | 273° |
| 2026-04-25 15:09 | -4.23883 | 49.38387 | 39907 ft | 526 kts | 273° |
| 2026-04-25 15:09 | -4.23721 | 49.27375 | 39917 ft | 526 kts | 273° |
| 2026-04-25 15:10 | -4.23613 | 49.20031 | 39914 ft | 526 kts | 273° |
| 2026-04-25 15:11 | -4.23449 | 49.09076 | 39920 ft | 526 kts | 273° |
| 2026-04-25 15:11 | -4.23339 | 49.01740 | 39914 ft | 526 kts | 273° |
| 2026-04-25 15:12 | -4.23179 | 48.91173 | 39909 ft | 526 kts | 273° |
| 2026-04-25 15:12 | -4.23088 | 48.85201 | 39913 ft | 526 kts | 273° |
| 2026-04-25 15:13 | -4.22907 | 48.73451 | 39914 ft | 526 kts | 273° |
| 2026-04-25 15:14 | -4.22795 | 48.66202 | 39915 ft | 525 kts | 273° |
| 2026-04-25 15:14 | -4.22684 | 48.59102 | 39912 ft | 525 kts | 273° |
| 2026-04-25 15:15 | -4.22572 | 48.51967 | 39913 ft | 525 kts | 272° |
| 2026-04-25 15:15 | -4.22460 | 48.44853 | 39912 ft | 524 kts | 272° |
| 2026-04-25 15:16 | -4.22350 | 48.37892 | 39917 ft | 524 kts | 272° |
| 2026-04-25 15:16 | -4.22175 | 48.26921 | 39916 ft | 522 kts | 272° |
| 2026-04-25 15:17 | -4.21999 | 48.16011 | 39913 ft | 521 kts | 272° |
| 2026-04-25 15:18 | -4.21881 | 48.08786 | 39912 ft | 520 kts | 272° |
| 2026-04-25 15:18 | -4.21703 | 47.97895 | 39914 ft | 520 kts | 272° |
| 2026-04-25 15:19 | -4.21604 | 47.91853 | 39916 ft | 520 kts | 272° |
| 2026-04-25 15:19 | -4.21465 | 47.83416 | 39912 ft | 520 kts | 272° |
| 2026-04-25 15:20 | -4.21345 | 47.76190 | 39909 ft | 519 kts | 272° |
| 2026-04-25 15:20 | -4.21224 | 47.68935 | 39910 ft | 519 kts | 272° |
| 2026-04-25 15:21 | -4.21103 | 47.61733 | 39914 ft | 519 kts | 272° |
| 2026-04-25 15:21 | -4.20980 | 47.54472 | 39913 ft | 519 kts | 272° |
| 2026-04-25 15:22 | -4.20858 | 47.47279 | 39913 ft | 519 kts | 272° |
| 2026-04-25 15:22 | -4.20734 | 47.40030 | 39915 ft | 519 kts | 272° |
| 2026-04-25 15:23 | -4.20610 | 47.32789 | 39911 ft | 519 kts | 272° |
| 2026-04-25 15:23 | -4.20485 | 47.25594 | 39917 ft | 519 kts | 272° |
| 2026-04-25 15:24 | -4.20360 | 47.18347 | 39915 ft | 520 kts | 272° |
| 2026-04-25 15:24 | -4.20255 | 47.12313 | 39915 ft | 520 kts | 272° |
| 2026-04-25 15:25 | -4.20106 | 47.03859 | 39913 ft | 521 kts | 272° |
| 2026-04-25 15:25 | -4.19979 | 46.96626 | 39915 ft | 521 kts | 272° |
| 2026-04-25 15:26 | -4.19850 | 46.89351 | 39914 ft | 522 kts | 272° |
| 2026-04-25 15:26 | -4.19720 | 46.82117 | 39918 ft | 522 kts | 272° |
| 2026-04-25 15:27 | -4.19588 | 46.74820 | 39915 ft | 523 kts | 272° |
| 2026-04-25 15:28 | -4.19388 | 46.63881 | 39914 ft | 523 kts | 272° |
| 2026-04-25 15:28 | -4.19254 | 46.56577 | 39918 ft | 523 kts | 272° |
| 2026-04-25 15:29 | -4.19121 | 46.49337 | 39917 ft | 523 kts | 272° |
| 2026-04-25 15:29 | -4.18986 | 46.42038 | 39916 ft | 522 kts | 272° |
| 2026-04-25 15:30 | -4.18850 | 46.34752 | 39917 ft | 523 kts | 272° |
| 2026-04-25 15:30 | -4.18714 | 46.27479 | 39917 ft | 522 kts | 272° |
| 2026-04-25 15:31 | -4.18578 | 46.20232 | 39920 ft | 523 kts | 272° |
| 2026-04-25 15:31 | -4.18440 | 46.12948 | 39918 ft | 523 kts | 272° |
| 2026-04-25 15:32 | -4.18302 | 46.05656 | 39917 ft | 523 kts | 272° |
| 2026-04-25 15:32 | -4.18163 | 45.98406 | 39914 ft | 523 kts | 272° |
| 2026-04-25 15:33 | -4.17953 | 45.87436 | 39918 ft | 524 kts | 272° |
| 2026-04-25 15:33 | -4.17813 | 45.80185 | 39919 ft | 524 kts | 273° |
| 2026-04-25 15:34 | -4.17670 | 45.72834 | 39922 ft | 524 kts | 273° |
| 2026-04-25 15:34 | -4.17576 | 45.68003 | 39917 ft | 524 kts | 273° |
| 2026-04-25 15:35 | -4.16908 | 45.54644 | 39915 ft | 523 kts | 275° |
| 2026-04-25 15:36 | -4.16287 | 45.43772 | 39915 ft | 523 kts | 275° |
| 2026-04-25 15:36 | -4.15871 | 45.36489 | 39916 ft | 522 kts | 275° |
| 2026-04-25 15:37 | -4.15450 | 45.29206 | 39916 ft | 522 kts | 275° |
| 2026-04-25 15:37 | -4.15036 | 45.21999 | 39918 ft | 521 kts | 275° |
| 2026-04-25 15:38 | -4.14619 | 45.14791 | 39920 ft | 521 kts | 275° |
| 2026-04-25 15:38 | -4.14199 | 45.07535 | 39917 ft | 520 kts | 275° |
| 2026-04-25 15:39 | -4.13780 | 45.00314 | 39917 ft | 520 kts | 275° |
| 2026-04-25 15:39 | -4.13361 | 44.93087 | 39918 ft | 520 kts | 275° |
| 2026-04-25 15:40 | -4.13082 | 44.88276 | 39920 ft | 520 kts | 275° |
| 2026-04-25 15:40 | -4.12520 | 44.78636 | 39921 ft | 519 kts | 275° |
| 2026-04-25 15:41 | -4.12098 | 44.71395 | 39919 ft | 520 kts | 275° |
| 2026-04-25 15:41 | -4.11678 | 44.64199 | 39924 ft | 520 kts | 275° |
| 2026-04-25 15:42 | -4.11254 | 44.56956 | 39918 ft | 520 kts | 275° |
| 2026-04-25 15:42 | -4.10832 | 44.49751 | 39920 ft | 520 kts | 275° |
| 2026-04-25 15:43 | -4.10407 | 44.42514 | 39918 ft | 521 kts | 275° |
| 2026-04-25 15:43 | -4.09980 | 44.35249 | 39921 ft | 521 kts | 275° |
| 2026-04-25 15:44 | -4.09553 | 44.27987 | 39922 ft | 521 kts | 275° |
| 2026-04-25 15:44 | -4.09128 | 44.20778 | 39918 ft | 521 kts | 275° |
| 2026-04-25 15:45 | -4.08700 | 44.13534 | 39926 ft | 521 kts | 275° |
| 2026-04-25 15:45 | -4.08413 | 44.08682 | 39924 ft | 521 kts | 275° |
| 2026-04-25 15:46 | -4.07917 | 44.00255 | 39921 ft | 521 kts | 275° |
| 2026-04-25 15:46 | -4.07711 | 43.93010 | 39913 ft | 521 kts | 274° |
| 2026-04-25 15:47 | -4.07485 | 43.85746 | 39913 ft | 521 kts | 274° |
| 2026-04-25 15:47 | -4.07285 | 43.78510 | 39921 ft | 521 kts | 274° |
| 2026-04-25 15:48 | -4.07067 | 43.71245 | 39919 ft | 521 kts | 274° |
| 2026-04-25 15:48 | -4.06859 | 43.63982 | 39922 ft | 521 kts | 274° |
| 2026-04-25 15:49 | -4.06645 | 43.56765 | 39921 ft | 521 kts | 274° |
| 2026-04-25 15:49 | -4.06433 | 43.49503 | 39918 ft | 521 kts | 273° |
| 2026-04-25 15:50 | -4.06218 | 43.42242 | 39926 ft | 521 kts | 273° |
| 2026-04-25 15:50 | -4.06004 | 43.34982 | 39924 ft | 521 kts | 273° |
| 2026-04-25 15:51 | -4.05825 | 43.28938 | 39926 ft | 521 kts | 273° |
| 2026-04-25 15:51 | -4.05581 | 43.20723 | 39923 ft | 521 kts | 273° |
| 2026-04-25 15:52 | -4.05360 | 43.13336 | 39928 ft | 521 kts | 273° |
| 2026-04-25 15:52 | -4.05143 | 43.06061 | 39924 ft | 522 kts | 273° |
| 2026-04-25 15:53 | -4.04924 | 42.98785 | 39928 ft | 522 kts | 273° |
| 2026-04-25 15:53 | -4.04707 | 42.91565 | 39926 ft | 521 kts | 272° |
| 2026-04-25 15:54 | -4.04491 | 42.84283 | 39926 ft | 521 kts | 272° |
| 2026-04-25 15:54 | -4.04284 | 42.77018 | 39931 ft | 521 kts | 272° |
| 2026-04-25 15:55 | -4.04071 | 42.69799 | 39925 ft | 522 kts | 272° |
| 2026-04-25 15:55 | -4.03860 | 42.62517 | 39926 ft | 523 kts | 272° |
| 2026-04-25 15:56 | -4.03645 | 42.55226 | 39927 ft | 523 kts | 272° |
| 2026-04-25 15:56 | -4.03432 | 42.47976 | 39925 ft | 523 kts | 272° |
| 2026-04-25 15:57 | -4.03217 | 42.40688 | 39923 ft | 524 kts | 273° |
| 2026-04-25 15:57 | -4.03002 | 42.33397 | 39925 ft | 524 kts | 273° |
| 2026-04-25 15:58 | -4.02784 | 42.26073 | 39927 ft | 524 kts | 273° |
| 2026-04-25 15:58 | -4.02568 | 42.18818 | 39928 ft | 521 kts | 273° |
| 2026-04-25 15:59 | -4.02354 | 42.11641 | 39911 ft | 515 kts | 273° |
| 2026-04-25 15:59 | -4.02138 | 42.04450 | 39913 ft | 516 kts | 273° |
| 2026-04-25 16:00 | -4.01994 | 41.99636 | 39917 ft | 517 kts | 273° |
| 2026-04-25 16:00 | -4.01705 | 41.90053 | 39918 ft | 517 kts | 273° |
| 2026-04-25 16:01 | -4.01489 | 41.82903 | 39920 ft | 517 kts | 273° |
| 2026-04-25 16:01 | -4.01271 | 41.75687 | 39919 ft | 517 kts | 273° |
| 2026-04-25 16:02 | -4.01051 | 41.68466 | 39919 ft | 518 kts | 273° |
| 2026-04-25 16:02 | -4.00833 | 41.61296 | 39920 ft | 518 kts | 273° |
| 2026-04-25 16:03 | -4.00612 | 41.54067 | 39923 ft | 519 kts | 273° |
| 2026-04-25 16:03 | -4.00391 | 41.46865 | 39923 ft | 519 kts | 273° |
| 2026-04-25 16:04 | -4.00168 | 41.39616 | 39924 ft | 520 kts | 273° |
| 2026-04-25 16:04 | -3.99947 | 41.32445 | 39913 ft | 516 kts | 273° |
| 2026-04-25 16:05 | -3.99724 | 41.25206 | 39919 ft | 520 kts | 273° |
| 2026-04-25 16:05 | -4.00538 | 41.18030 | 39911 ft | 524 kts | 257° |
| 2026-04-25 16:06 | -4.01730 | 41.14564 | 39911 ft | 527 kts | 248° |
| 2026-04-25 16:06 | -4.05559 | 41.08309 | 39913 ft | 529 kts | 231° |
| 2026-04-25 16:07 | -4.11002 | 41.03402 | 39910 ft | 532 kts | 214° |
| 2026-04-25 16:07 | -4.17617 | 41.00042 | 39931 ft | 533 kts | 203° |
| 2026-04-25 16:08 | -4.24466 | 40.97153 | 39929 ft | 533 kts | 205° |
| 2026-04-25 16:08 | -4.30867 | 40.93401 | 39918 ft | 533 kts | 214° |
| 2026-04-25 16:09 | -4.36979 | 40.89258 | 39925 ft | 534 kts | 212° |
| 2026-04-25 16:09 | -4.43435 | 40.85570 | 39924 ft | 534 kts | 211° |
| 2026-04-25 16:10 | -4.49731 | 40.81579 | 39926 ft | 534 kts | 213° |
| 2026-04-25 16:10 | -4.56079 | 40.77790 | 39930 ft | 534 kts | 211° |
| 2026-04-25 16:11 | -4.62408 | 40.73885 | 39934 ft | 534 kts | 213° |
| 2026-04-25 16:11 | -4.65561 | 40.71939 | 39691 ft | 524 kts | 212° |
| 2026-04-25 16:11 | -4.68650 | 40.70085 | 38955 ft | 511 kts | 211° |
| 2026-04-25 16:11 | -4.71654 | 40.68275 | 38238 ft | 498 kts | 212° |
| 2026-04-25 16:12 | -4.74570 | 40.66476 | 37598 ft | 483 kts | 212° |
| 2026-04-25 16:12 | -4.77370 | 40.64749 | 36980 ft | 474 kts | 212° |
| 2026-04-25 16:12 | -4.80191 | 40.63033 | 36367 ft | 471 kts | 211° |
| 2026-04-25 16:12 | -4.82039 | 40.61886 | 35949 ft | 473 kts | 213° |
| 2026-04-25 16:13 | -4.85595 | 40.59189 | 35123 ft | 483 kts | 219° |
| 2026-04-25 16:13 | -4.88179 | 40.57068 | 34492 ft | 488 kts | 219° |
| 2026-04-25 16:13 | -4.90853 | 40.54934 | 33833 ft | 491 kts | 218° |
| 2026-04-25 16:13 | -4.93560 | 40.52859 | 33159 ft | 491 kts | 218° |
| 2026-04-25 16:14 | -4.96272 | 40.50757 | 32508 ft | 492 kts | 219° |
| 2026-04-25 16:14 | -4.98961 | 40.48610 | 31855 ft | 493 kts | 219° |
| 2026-04-25 16:14 | -5.01647 | 40.46471 | 31201 ft | 492 kts | 219° |
| 2026-04-25 16:14 | -5.04354 | 40.44358 | 30555 ft | 492 kts | 218° |
| 2026-04-25 16:15 | -5.07016 | 40.42283 | 29896 ft | 488 kts | 218° |
| 2026-04-25 16:15 | -5.09656 | 40.40198 | 29228 ft | 480 kts | 219° |
| 2026-04-25 16:15 | -5.12208 | 40.38034 | 28551 ft | 475 kts | 225° |
| 2026-04-25 16:15 | -5.14375 | 40.35540 | 27977 ft | 472 kts | 230° |
| 2026-04-25 16:16 | -5.16448 | 40.32983 | 27352 ft | 470 kts | 231° |
| 2026-04-25 16:16 | -5.18519 | 40.30454 | 26732 ft | 467 kts | 230° |
| 2026-04-25 16:16 | -5.20589 | 40.28017 | 26128 ft | 464 kts | 229° |
| 2026-04-25 16:16 | -5.22665 | 40.25569 | 25522 ft | 460 kts | 230° |
| 2026-04-25 16:17 | -5.24716 | 40.23095 | 24912 ft | 458 kts | 230° |
| 2026-04-25 16:17 | -5.26744 | 40.20640 | 24311 ft | 455 kts | 230° |
| 2026-04-25 16:17 | -5.28773 | 40.18217 | 23720 ft | 452 kts | 230° |
| 2026-04-25 16:17 | -5.30797 | 40.15812 | 23073 ft | 447 kts | 230° |
| 2026-04-25 16:18 | -5.32792 | 40.13419 | 22476 ft | 442 kts | 230° |
| 2026-04-25 16:18 | -5.33434 | 40.12646 | 22289 ft | 441 kts | 230° |
| 2026-04-25 16:18 | -5.36705 | 40.08720 | 21324 ft | 435 kts | 230° |
| 2026-04-25 16:18 | -5.38618 | 40.06434 | 20761 ft | 431 kts | 230° |
| 2026-04-25 16:19 | -5.40541 | 40.04131 | 20187 ft | 427 kts | 230° |
| 2026-04-25 16:19 | -5.42435 | 40.01857 | 19632 ft | 424 kts | 230° |
| 2026-04-25 16:19 | -5.44325 | 39.99591 | 19075 ft | 420 kts | 230° |
| 2026-04-25 16:20 | -5.48027 | 39.95155 | 17946 ft | 413 kts | 230° |
| 2026-04-25 16:20 | -5.49858 | 39.92958 | 17396 ft | 407 kts | 229° |
| 2026-04-25 16:20 | -5.53465 | 39.88633 | 16332 ft | 399 kts | 229° |
| 2026-04-25 16:21 | -5.55218 | 39.86531 | 15810 ft | 395 kts | 229° |
| 2026-04-25 16:21 | -5.56972 | 39.84426 | 15287 ft | 389 kts | 229° |
| 2026-04-25 16:21 | -5.58707 | 39.82345 | 14783 ft | 386 kts | 229° |
| 2026-04-25 16:21 | -5.60421 | 39.80289 | 14274 ft | 381 kts | 228° |
| 2026-04-25 16:22 | -5.62114 | 39.78258 | 13771 ft | 377 kts | 228° |
| 2026-04-25 16:22 | -5.63785 | 39.76252 | 13245 ft | 374 kts | 228° |
| 2026-04-25 16:22 | -5.65453 | 39.74250 | 12752 ft | 371 kts | 228° |
| 2026-04-25 16:22 | -5.67083 | 39.72293 | 12271 ft | 368 kts | 228° |
| 2026-04-25 16:23 | -5.68723 | 39.70326 | 11787 ft | 366 kts | 228° |
| 2026-04-25 16:23 | -5.70353 | 39.68369 | 11303 ft | 361 kts | 228° |
| 2026-04-25 16:23 | -5.71918 | 39.66487 | 10837 ft | 340 kts | 228° |
| 2026-04-25 16:23 | -5.73393 | 39.64714 | 10397 ft | 322 kts | 228° |
| 2026-04-25 16:24 | -5.74806 | 39.63019 | 9980 ft | 307 kts | 227° |
| 2026-04-25 16:24 | -5.76131 | 39.61429 | 9648 ft | 295 kts | 227° |
| 2026-04-25 16:24 | -5.77396 | 39.59911 | 9282 ft | 292 kts | 227° |
| 2026-04-25 16:24 | -5.78699 | 39.58348 | 8901 ft | 290 kts | 227° |
| 2026-04-25 16:25 | -5.79991 | 39.56795 | 8518 ft | 288 kts | 227° |
| 2026-04-25 16:25 | -5.80406 | 39.56297 | 8398 ft | 288 kts | 227° |
| 2026-04-25 16:25 | -5.82530 | 39.53744 | 7771 ft | 284 kts | 227° |
| 2026-04-25 16:25 | -5.83797 | 39.52223 | 7399 ft | 282 kts | 227° |
| 2026-04-25 16:26 | -5.85050 | 39.50717 | 7028 ft | 280 kts | 227° |
| 2026-04-25 16:26 | -5.86297 | 39.49219 | 6658 ft | 277 kts | 227° |
| 2026-04-25 16:26 | -5.87516 | 39.47754 | 6294 ft | 276 kts | 227° |
| 2026-04-25 16:26 | -5.88743 | 39.46279 | 5915 ft | 273 kts | 227° |
| 2026-04-25 16:27 | -5.89957 | 39.44820 | 5556 ft | 272 kts | 227° |
| 2026-04-25 16:27 | -5.91064 | 39.43489 | 5225 ft | 270 kts | 227° |
| 2026-04-25 16:27 | -5.92266 | 39.42044 | 4868 ft | 267 kts | 227° |
| 2026-04-25 16:27 | -5.93456 | 39.40614 | 4497 ft | 266 kts | 227° |
| 2026-04-25 16:28 | -5.94625 | 39.39209 | 4148 ft | 264 kts | 227° |
| 2026-04-25 16:28 | -5.95804 | 39.37792 | 3801 ft | 262 kts | 228° |
| 2026-04-25 16:28 | -5.96960 | 39.36400 | 3455 ft | 260 kts | 227° |
| 2026-04-25 16:28 | -5.98104 | 39.35024 | 3117 ft | 247 kts | 227° |
| 2026-04-25 16:29 | -5.99152 | 39.33759 | 2774 ft | 223 kts | 227° |
| 2026-04-25 16:29 | -6.00099 | 39.32619 | 2485 ft | 201 kts | 227° |
| 2026-04-25 16:29 | -6.00954 | 39.31591 | 2246 ft | 182 kts | 226° |
| 2026-04-25 16:29 | -6.01687 | 39.30605 | 1984 ft | 174 kts | 239° |
| 2026-04-25 16:30 | -6.01941 | 39.29435 | 1947 ft | 167 kts | 260° |
| 2026-04-25 16:30 | -6.02049 | 39.28294 | 2024 ft | 171 kts | 259° |
| 2026-04-25 16:30 | -6.02184 | 39.27085 | 2029 ft | 176 kts | 260° |
| 2026-04-25 16:30 | -6.02308 | 39.25860 | 2032 ft | 177 kts | 259° |
| 2026-04-25 16:31 | -6.02432 | 39.24621 | 2026 ft | 178 kts | 259° |
| 2026-04-25 16:31 | -6.02555 | 39.23390 | 2025 ft | 176 kts | 259° |
| 2026-04-25 16:31 | -6.02818 | 39.22199 | 1986 ft | 173 kts | 240° |
| 2026-04-25 16:31 | -6.03561 | 39.21308 | 2005 ft | 165 kts | 214° |
| 2026-04-25 16:32 | -6.04595 | 39.20838 | 1999 ft | 166 kts | 191° |
| 2026-04-25 16:32 | -6.05727 | 39.20842 | 2003 ft | 160 kts | 174° |
| 2026-04-25 16:32 | -6.06835 | 39.20958 | 2006 ft | 162 kts | 175° |
| 2026-04-25 16:32 | -6.07961 | 39.21058 | 2005 ft | 162 kts | 175° |
| 2026-04-25 16:33 | -6.09097 | 39.21172 | 2011 ft | 165 kts | 174° |
| 2026-04-25 16:33 | -6.10231 | 39.21286 | 2010 ft | 164 kts | 174° |
| 2026-04-25 16:33 | -6.10989 | 39.21362 | 1972 ft | 166 kts | 174° |
| 2026-04-25 16:33 | -6.12484 | 39.21512 | 1696 ft | 149 kts | 174° |
| 2026-04-25 16:34 | -6.13419 | 39.21606 | 1509 ft | 122 kts | 174° |
| 2026-04-25 16:34 | -6.13961 | 39.21661 | 1402 ft | 117 kts | 174° |
| 2026-04-25 16:34 | -6.15014 | 39.21766 | 1214 ft | 112 kts | 174° |
| 2026-04-25 16:34 | -6.15798 | 39.21845 | 1077 ft | 115 kts | 174° |
| 2026-04-25 16:35 | -6.16599 | 39.21927 | 933 ft | 117 kts | 173° |
| 2026-04-25 16:35 | -6.17142 | 39.21982 | 827 ft | 119 kts | 172° |
| 2026-04-25 16:35 | -6.17962 | 39.22064 | 685 ft | 118 kts | 173° |
| 2026-04-25 16:35 | -6.18784 | 39.22149 | 551 ft | 120 kts | 173° |
| 2026-04-25 16:36 | -6.19606 | 39.22228 | 408 ft | 115 kts | 173° |
| 2026-04-25 16:36 | -6.20140 | 39.22286 | 277 ft | 120 kts | 172° |
| 2026-04-25 16:36 | -6.21232 | 39.22395 | 94 ft | 118 kts | 172° |
| 2026-04-25 16:36 | -6.22011 | 39.22477 | 55 ft | 101 kts | 174° |
| 2026-04-25 16:37 | -6.22549 | 39.22529 | 50 ft | 64 kts | 175° |
| 2026-04-25 16:37 | -6.22911 | 39.22565 | 54 ft | 28 kts | 175° |
| 2026-04-25 16:37 | -6.22986 | 39.22529 | 55 ft | 3 kts | 247° |
| 2026-04-25 16:37 | -6.22990 | 39.22506 | 51 ft | 4 kts | 262° |
| 2026-04-25 16:38 | -6.22994 | 39.22476 | 54 ft | 5 kts | 262° |
| 2026-04-25 16:38 | -6.22999 | 39.22439 | 53 ft | 6 kts | 262° |
| 2026-04-25 16:38 | -6.22993 | 39.22402 | 53 ft | 6 kts | 315° |
| 2026-04-25 16:38 | -6.22948 | 39.22395 | 54 ft | 7 kts | 356° |
| 2026-04-25 16:39 | -6.22890 | 39.22389 | 54 ft | 9 kts | 354° |
| 2026-04-25 16:39 | -6.22816 | 39.22383 | 55 ft | 12 kts | 355° |
| 2026-04-25 16:39 | -6.22722 | 39.22375 | 54 ft | 15 kts | 355° |
| 2026-04-25 16:39 | -6.22605 | 39.22364 | 50 ft | 19 kts | 351° |
| 2026-04-25 16:40 | -6.22469 | 39.22343 | 54 ft | 18 kts | 353° |
| 2026-04-25 16:40 | -6.22333 | 39.22331 | 54 ft | 21 kts | 356° |
| 2026-04-25 16:40 | -6.22188 | 39.22319 | 54 ft | 16 kts | 354° |
| 2026-04-25 16:40 | -6.22077 | 39.22306 | 55 ft | 16 kts | 353° |
| 2026-04-25 16:41 | -6.21988 | 39.22301 | 54 ft | 7 kts | 8° |
| 2026-04-25 16:41 | -6.21952 | 39.22299 | 54 ft | 8 kts | 352° |
| 2026-04-25 16:41 | -6.21894 | 39.22236 | 53 ft | 2 kts | 266° |
| 2026-04-25 16:42 | -6.21901 | 39.22225 | 53 ft | 1 kts | 197° |
| 2026-04-25 16:42 | -6.21903 | 39.22225 | 53 ft | 0 kts | 180° |